sensor_id;sensor_type;location;lat;lon;timestamp;P1;durP1;ratioP1;P2;durP2;ratioP2
48987;SDS011;34799;51.440;-2.534;2023-03-23T00:01:56;10.55;;;0.77;;
48987;SDS011;34799;51.440;-2.534;2023-03-23T00:06:52;10.65;;;1.58;;
48987;SDS011;34799;51.440;-2.534;2023-03-23T00:09:19;14.30;;;1.42;;
48987;SDS011;34799;51.440;-2.534;2023-03-23T00:11:50;14.32;;;1.45;;
48987;SDS011;34799;51.440;-2.534;2023-03-23T00:14:17;11.27;;;1.17;;
48987;SDS011;34799;51.440;-2.534;2023-03-23T00:16:47;15.82;;;1.67;;
48987;SDS011;34799;51.440;-2.534;2023-03-23T00:19:15;10.32;;;2.03;;
48987;SDS011;34799;51.440;-2.534;2023-03-23T00:21:42;13.00;;;1.92;;
48987;SDS011;34799;51.440;-2.534;2023-03-23T00:24:12;11.65;;;0.90;;
48987;SDS011;34799;51.440;-2.534;2023-03-23T00:26:44;10.65;;;1.20;;
48987;SDS011;34799;51.440;-2.534;2023-03-23T00:29:16;11.98;;;1.08;;
48987;SDS011;34799;51.440;-2.534;2023-03-23T00:31:49;8.43;;;1.00;;
48987;SDS011;34799;51.440;-2.534;2023-03-23T00:34:17;16.38;;;2.47;;
48987;SDS011;34799;51.440;-2.534;2023-03-23T00:36:50;12.30;;;0.98;;
48987;SDS011;34799;51.440;-2.534;2023-03-23T00:39:27;13.07;;;1.85;;
48987;SDS011;34799;51.440;-2.534;2023-03-23T00:41:54;17.20;;;1.15;;
48987;SDS011;34799;51.440;-2.534;2023-03-23T00:44:27;9.32;;;1.13;;
48987;SDS011;34799;51.440;-2.534;2023-03-23T00:46:56;16.50;;;1.25;;
48987;SDS011;34799;51.440;-2.534;2023-03-23T00:49:23;23.98;;;2.25;;
48987;SDS011;34799;51.440;-2.534;2023-03-23T00:51:51;13.55;;;1.40;;
48987;SDS011;34799;51.440;-2.534;2023-03-23T00:54:20;21.48;;;1.63;;
48987;SDS011;34799;51.440;-2.534;2023-03-23T00:56:48;13.45;;;1.50;;
48987;SDS011;34799;51.440;-2.534;2023-03-23T00:59:15;15.75;;;1.23;;
48987;SDS011;34799;51.440;-2.534;2023-03-23T01:01:43;12.95;;;1.77;;
48987;SDS011;34799;51.440;-2.534;2023-03-23T01:04:09;15.38;;;1.38;;
48987;SDS011;34799;51.440;-2.534;2023-03-23T01:06:38;14.52;;;1.75;;
48987;SDS011;34799;51.440;-2.534;2023-03-23T01:09:11;12.07;;;1.05;;
48987;SDS011;34799;51.440;-2.534;2023-03-23T01:11:47;16.45;;;2.33;;
48987;SDS011;34799;51.440;-2.534;2023-03-23T01:14:16;15.90;;;1.60;;
48987;SDS011;34799;51.440;-2.534;2023-03-23T01:16:43;14.05;;;1.48;;
48987;SDS011;34799;51.440;-2.534;2023-03-23T01:19:10;14.35;;;1.73;;
48987;SDS011;34799;51.440;-2.534;2023-03-23T01:21:36;14.43;;;1.95;;
48987;SDS011;34799;51.440;-2.534;2023-03-23T01:24:03;15.48;;;1.65;;
48987;SDS011;34799;51.440;-2.534;2023-03-23T01:26:29;19.42;;;2.58;;
48987;SDS011;34799;51.440;-2.534;2023-03-23T01:28:55;13.57;;;2.10;;
48987;SDS011;34799;51.440;-2.534;2023-03-23T01:36:19;13.85;;;1.30;;
48987;SDS011;34799;51.440;-2.534;2023-03-23T01:38:48;16.95;;;2.58;;
48987;SDS011;34799;51.440;-2.534;2023-03-23T01:41:16;15.25;;;1.75;;
48987;SDS011;34799;51.440;-2.534;2023-03-23T01:46:46;15.35;;;1.98;;
48987;SDS011;34799;51.440;-2.534;2023-03-23T01:51:48;12.18;;;1.52;;
48987;SDS011;34799;51.440;-2.534;2023-03-23T01:54:18;13.05;;;0.93;;
48987;SDS011;34799;51.440;-2.534;2023-03-23T01:56:52;13.00;;;1.55;;
48987;SDS011;34799;51.440;-2.534;2023-03-23T01:59:22;14.45;;;1.52;;
48987;SDS011;34799;51.440;-2.534;2023-03-23T02:02:07;13.52;;;1.48;;
48987;SDS011;34799;51.440;-2.534;2023-03-23T02:04:33;17.92;;;1.35;;
48987;SDS011;34799;51.440;-2.534;2023-03-23T02:06:59;16.98;;;2.58;;
48987;SDS011;34799;51.440;-2.534;2023-03-23T02:09:28;13.15;;;2.42;;
48987;SDS011;34799;51.440;-2.534;2023-03-23T02:11:55;11.40;;;1.30;;
48987;SDS011;34799;51.440;-2.534;2023-03-23T02:14:21;7.88;;;0.82;;
48987;SDS011;34799;51.440;-2.534;2023-03-23T02:34:09;14.02;;;1.48;;
48987;SDS011;34799;51.440;-2.534;2023-03-23T02:36:46;12.25;;;1.40;;
48987;SDS011;34799;51.440;-2.534;2023-03-23T02:39:20;17.17;;;2.28;;
48987;SDS011;34799;51.440;-2.534;2023-03-23T02:42:07;16.23;;;2.38;;
48987;SDS011;34799;51.440;-2.534;2023-03-23T02:44:37;19.25;;;1.60;;
48987;SDS011;34799;51.440;-2.534;2023-03-23T02:47:07;12.88;;;0.93;;
48987;SDS011;34799;51.440;-2.534;2023-03-23T02:49:37;19.95;;;2.25;;
48987;SDS011;34799;51.440;-2.534;2023-03-23T02:52:10;14.45;;;1.48;;
48987;SDS011;34799;51.440;-2.534;2023-03-23T02:54:42;12.40;;;1.00;;
48987;SDS011;34799;51.440;-2.534;2023-03-23T02:57:10;14.80;;;1.45;;
48987;SDS011;34799;51.440;-2.534;2023-03-23T02:59:40;17.75;;;1.27;;
48987;SDS011;34799;51.440;-2.534;2023-03-23T03:02:12;8.80;;;0.95;;
48987;SDS011;34799;51.440;-2.534;2023-03-23T03:04:45;17.65;;;1.10;;
48987;SDS011;34799;51.440;-2.534;2023-03-23T03:09:59;15.48;;;1.05;;
48987;SDS011;34799;51.440;-2.534;2023-03-23T03:17:52;14.30;;;2.15;;
48987;SDS011;34799;51.440;-2.534;2023-03-23T03:20:44;11.57;;;1.30;;
48987;SDS011;34799;51.440;-2.534;2023-03-23T03:23:14;13.70;;;1.00;;
48987;SDS011;34799;51.440;-2.534;2023-03-23T03:25:43;13.00;;;0.88;;
48987;SDS011;34799;51.440;-2.534;2023-03-23T03:28:18;11.40;;;1.90;;
48987;SDS011;34799;51.440;-2.534;2023-03-23T03:30:52;12.27;;;2.08;;
48987;SDS011;34799;51.440;-2.534;2023-03-23T03:33:21;10.45;;;0.88;;
48987;SDS011;34799;51.440;-2.534;2023-03-23T03:35:54;13.75;;;1.00;;
48987;SDS011;34799;51.440;-2.534;2023-03-23T03:38:21;15.00;;;1.02;;
48987;SDS011;34799;51.440;-2.534;2023-03-23T03:40:49;9.73;;;1.08;;
48987;SDS011;34799;51.440;-2.534;2023-03-23T03:43:15;11.00;;;1.15;;
48987;SDS011;34799;51.440;-2.534;2023-03-23T03:45:42;20.17;;;1.20;;
48987;SDS011;34799;51.440;-2.534;2023-03-23T03:48:11;12.90;;;1.48;;
48987;SDS011;34799;51.440;-2.534;2023-03-23T03:50:38;12.95;;;0.90;;
48987;SDS011;34799;51.440;-2.534;2023-03-23T03:53:05;7.43;;;1.25;;
48987;SDS011;34799;51.440;-2.534;2023-03-23T03:55:32;14.80;;;1.20;;
48987;SDS011;34799;51.440;-2.534;2023-03-23T03:58:08;18.25;;;2.35;;
48987;SDS011;34799;51.440;-2.534;2023-03-23T04:00:55;10.00;;;1.05;;
48987;SDS011;34799;51.440;-2.534;2023-03-23T04:03:27;14.77;;;1.58;;
48987;SDS011;34799;51.440;-2.534;2023-03-23T04:06:04;8.82;;;1.35;;
48987;SDS011;34799;51.440;-2.534;2023-03-23T04:08:33;15.20;;;2.13;;
48987;SDS011;34799;51.440;-2.534;2023-03-23T04:11:00;12.82;;;1.10;;
48987;SDS011;34799;51.440;-2.534;2023-03-23T04:13:29;16.50;;;1.13;;
48987;SDS011;34799;51.440;-2.534;2023-03-23T04:16:03;12.77;;;1.75;;
48987;SDS011;34799;51.440;-2.534;2023-03-23T04:18:32;14.15;;;1.40;;
48987;SDS011;34799;51.440;-2.534;2023-03-23T04:21:00;9.90;;;1.13;;
48987;SDS011;34799;51.440;-2.534;2023-03-23T04:23:29;12.35;;;1.63;;
48987;SDS011;34799;51.440;-2.534;2023-03-23T04:26:01;19.35;;;1.52;;
48987;SDS011;34799;51.440;-2.534;2023-03-23T04:28:35;9.70;;;1.10;;
48987;SDS011;34799;51.440;-2.534;2023-03-23T04:31:19;11.10;;;1.00;;
48987;SDS011;34799;51.440;-2.534;2023-03-23T04:33:52;15.50;;;1.45;;
48987;SDS011;34799;51.440;-2.534;2023-03-23T04:36:20;12.43;;;1.85;;
48987;SDS011;34799;51.440;-2.534;2023-03-23T04:38:59;13.50;;;1.40;;
48987;SDS011;34799;51.440;-2.534;2023-03-23T04:41:25;18.08;;;1.85;;
48987;SDS011;34799;51.440;-2.534;2023-03-23T04:44:02;15.43;;;1.60;;
48987;SDS011;34799;51.440;-2.534;2023-03-23T04:46:35;14.57;;;1.58;;
48987;SDS011;34799;51.440;-2.534;2023-03-23T04:49:07;15.27;;;1.65;;
48987;SDS011;34799;51.440;-2.534;2023-03-23T04:51:37;15.55;;;2.35;;
48987;SDS011;34799;51.440;-2.534;2023-03-23T04:54:33;15.48;;;2.15;;
48987;SDS011;34799;51.440;-2.534;2023-03-23T04:57:00;10.38;;;1.02;;
48987;SDS011;34799;51.440;-2.534;2023-03-23T04:59:27;14.98;;;1.33;;
48987;SDS011;34799;51.440;-2.534;2023-03-23T05:02:07;15.43;;;1.45;;
48987;SDS011;34799;51.440;-2.534;2023-03-23T05:04:35;15.15;;;2.40;;
48987;SDS011;34799;51.440;-2.534;2023-03-23T05:07:12;18.50;;;1.20;;
48987;SDS011;34799;51.440;-2.534;2023-03-23T05:09:46;15.43;;;1.60;;
48987;SDS011;34799;51.440;-2.534;2023-03-23T05:12:14;18.08;;;1.58;;
48987;SDS011;34799;51.440;-2.534;2023-03-23T05:15:06;21.63;;;1.63;;
48987;SDS011;34799;51.440;-2.534;2023-03-23T05:17:37;19.48;;;1.70;;
48987;SDS011;34799;51.440;-2.534;2023-03-23T05:20:12;18.58;;;1.52;;
48987;SDS011;34799;51.440;-2.534;2023-03-23T05:22:43;17.02;;;2.05;;
48987;SDS011;34799;51.440;-2.534;2023-03-23T05:25:13;19.25;;;1.63;;
48987;SDS011;34799;51.440;-2.534;2023-03-23T05:27:43;15.27;;;1.83;;
48987;SDS011;34799;51.440;-2.534;2023-03-23T05:30:36;14.45;;;1.23;;
48987;SDS011;34799;51.440;-2.534;2023-03-23T05:33:04;17.10;;;2.10;;
48987;SDS011;34799;51.440;-2.534;2023-03-23T05:35:53;15.38;;;2.03;;
48987;SDS011;34799;51.440;-2.534;2023-03-23T05:38:27;17.58;;;2.85;;
48987;SDS011;34799;51.440;-2.534;2023-03-23T05:40:54;25.88;;;3.10;;
48987;SDS011;34799;51.440;-2.534;2023-03-23T05:43:28;19.30;;;1.52;;
48987;SDS011;34799;51.440;-2.534;2023-03-23T05:46:14;16.23;;;2.15;;
48987;SDS011;34799;51.440;-2.534;2023-03-23T05:48:41;18.95;;;2.33;;
48987;SDS011;34799;51.440;-2.534;2023-03-23T05:51:13;16.67;;;1.75;;
48987;SDS011;34799;51.440;-2.534;2023-03-23T05:53:42;17.02;;;1.65;;
48987;SDS011;34799;51.440;-2.534;2023-03-23T05:56:10;15.98;;;2.50;;
48987;SDS011;34799;51.440;-2.534;2023-03-23T05:58:56;18.17;;;2.00;;
48987;SDS011;34799;51.440;-2.534;2023-03-23T06:01:25;19.58;;;2.30;;
48987;SDS011;34799;51.440;-2.534;2023-03-23T06:03:51;13.65;;;2.03;;
48987;SDS011;34799;51.440;-2.534;2023-03-23T06:06:26;22.75;;;2.45;;
48987;SDS011;34799;51.440;-2.534;2023-03-23T06:09:07;22.65;;;2.83;;
48987;SDS011;34799;51.440;-2.534;2023-03-23T06:11:52;18.13;;;2.55;;
48987;SDS011;34799;51.440;-2.534;2023-03-23T06:14:30;25.30;;;2.97;;
48987;SDS011;34799;51.440;-2.534;2023-03-23T06:16:57;23.27;;;3.17;;
48987;SDS011;34799;51.440;-2.534;2023-03-23T06:19:23;21.95;;;2.88;;
48987;SDS011;34799;51.440;-2.534;2023-03-23T06:22:02;20.88;;;1.85;;
48987;SDS011;34799;51.440;-2.534;2023-03-23T06:24:42;17.35;;;2.20;;
48987;SDS011;34799;51.440;-2.534;2023-03-23T06:27:10;18.33;;;2.35;;
48987;SDS011;34799;51.440;-2.534;2023-03-23T06:32:03;18.08;;;1.67;;
48987;SDS011;34799;51.440;-2.534;2023-03-23T06:34:31;18.58;;;2.47;;
48987;SDS011;34799;51.440;-2.534;2023-03-23T06:37:03;18.00;;;2.90;;
48987;SDS011;34799;51.440;-2.534;2023-03-23T06:39:35;24.13;;;2.10;;
48987;SDS011;34799;51.440;-2.534;2023-03-23T06:42:21;31.27;;;2.90;;
48987;SDS011;34799;51.440;-2.534;2023-03-23T06:45:00;22.35;;;2.97;;
48987;SDS011;34799;51.440;-2.534;2023-03-23T06:47:27;21.10;;;2.42;;
48987;SDS011;34799;51.440;-2.534;2023-03-23T06:49:56;18.55;;;2.13;;
48987;SDS011;34799;51.440;-2.534;2023-03-23T06:52:25;26.40;;;2.63;;
48987;SDS011;34799;51.440;-2.534;2023-03-23T06:54:53;24.98;;;3.55;;
48987;SDS011;34799;51.440;-2.534;2023-03-23T06:57:20;26.17;;;3.10;;
48987;SDS011;34799;51.440;-2.534;2023-03-23T06:59:49;20.13;;;2.75;;
48987;SDS011;34799;51.440;-2.534;2023-03-23T07:02:16;29.58;;;4.45;;
48987;SDS011;34799;51.440;-2.534;2023-03-23T07:04:45;19.83;;;2.70;;
48987;SDS011;34799;51.440;-2.534;2023-03-23T07:07:19;31.75;;;4.15;;
48987;SDS011;34799;51.440;-2.534;2023-03-23T07:10:15;22.55;;;3.05;;
48987;SDS011;34799;51.440;-2.534;2023-03-23T07:12:42;28.60;;;3.50;;
48987;SDS011;34799;51.440;-2.534;2023-03-23T07:15:09;22.10;;;2.92;;
48987;SDS011;34799;51.440;-2.534;2023-03-23T07:17:40;19.98;;;2.90;;
48987;SDS011;34799;51.440;-2.534;2023-03-23T07:20:26;22.23;;;2.45;;
48987;SDS011;34799;51.440;-2.534;2023-03-23T07:22:53;18.17;;;2.97;;
48987;SDS011;34799;51.440;-2.534;2023-03-23T07:25:32;24.38;;;2.90;;
48987;SDS011;34799;51.440;-2.534;2023-03-23T07:28:00;14.98;;;1.50;;
48987;SDS011;34799;51.440;-2.534;2023-03-23T07:30:27;17.00;;;1.65;;
48987;SDS011;34799;51.440;-2.534;2023-03-23T07:32:59;19.23;;;2.05;;
48987;SDS011;34799;51.440;-2.534;2023-03-23T07:35:29;21.10;;;1.92;;
48987;SDS011;34799;51.440;-2.534;2023-03-23T07:38:03;17.23;;;2.25;;
48987;SDS011;34799;51.440;-2.534;2023-03-23T07:40:30;19.52;;;2.35;;
48987;SDS011;34799;51.440;-2.534;2023-03-23T07:43:03;23.67;;;2.65;;
48987;SDS011;34799;51.440;-2.534;2023-03-23T07:45:48;29.08;;;3.20;;
48987;SDS011;34799;51.440;-2.534;2023-03-23T07:48:16;21.27;;;2.25;;
48987;SDS011;34799;51.440;-2.534;2023-03-23T07:50:42;15.20;;;2.40;;
48987;SDS011;34799;51.440;-2.534;2023-03-23T07:53:10;20.67;;;2.20;;
48987;SDS011;34799;51.440;-2.534;2023-03-23T07:55:39;19.67;;;2.30;;
48987;SDS011;34799;51.440;-2.534;2023-03-23T07:58:32;13.85;;;2.22;;
48987;SDS011;34799;51.440;-2.534;2023-03-23T08:00:58;19.50;;;1.92;;
48987;SDS011;34799;51.440;-2.534;2023-03-23T08:03:28;27.83;;;2.53;;
48987;SDS011;34799;51.440;-2.534;2023-03-23T08:06:10;31.83;;;3.15;;
48987;SDS011;34799;51.440;-2.534;2023-03-23T08:08:55;16.38;;;1.73;;
48987;SDS011;34799;51.440;-2.534;2023-03-23T08:11:40;22.52;;;2.40;;
48987;SDS011;34799;51.440;-2.534;2023-03-23T08:14:26;21.45;;;2.42;;
48987;SDS011;34799;51.440;-2.534;2023-03-23T08:17:16;15.95;;;1.67;;
48987;SDS011;34799;51.440;-2.534;2023-03-23T08:19:55;18.23;;;2.05;;
48987;SDS011;34799;51.440;-2.534;2023-03-23T08:22:41;16.40;;;2.22;;
48987;SDS011;34799;51.440;-2.534;2023-03-23T08:25:30;23.38;;;3.20;;
48987;SDS011;34799;51.440;-2.534;2023-03-23T08:28:15;18.13;;;2.88;;
48987;SDS011;34799;51.440;-2.534;2023-03-23T08:31:14;22.65;;;2.42;;
48987;SDS011;34799;51.440;-2.534;2023-03-23T08:33:52;18.75;;;2.33;;
48987;SDS011;34799;51.440;-2.534;2023-03-23T08:36:31;19.40;;;2.58;;
48987;SDS011;34799;51.440;-2.534;2023-03-23T08:39:12;25.10;;;2.20;;
48987;SDS011;34799;51.440;-2.534;2023-03-23T08:41:58;19.23;;;1.67;;
48987;SDS011;34799;51.440;-2.534;2023-03-23T08:45:04;18.77;;;2.45;;
48987;SDS011;34799;51.440;-2.534;2023-03-23T08:47:44;21.50;;;2.50;;
48987;SDS011;34799;51.440;-2.534;2023-03-23T08:50:34;23.70;;;2.53;;
48987;SDS011;34799;51.440;-2.534;2023-03-23T08:53:19;21.05;;;2.33;;
48987;SDS011;34799;51.440;-2.534;2023-03-23T08:55:46;17.08;;;2.35;;
48987;SDS011;34799;51.440;-2.534;2023-03-23T08:58:14;25.42;;;2.80;;
48987;SDS011;34799;51.440;-2.534;2023-03-23T09:00:58;21.83;;;2.00;;
48987;SDS011;34799;51.440;-2.534;2023-03-23T09:03:43;20.67;;;2.05;;
48987;SDS011;34799;51.440;-2.534;2023-03-23T09:06:27;15.80;;;2.35;;
48987;SDS011;34799;51.440;-2.534;2023-03-23T09:08:53;16.02;;;2.67;;
48987;SDS011;34799;51.440;-2.534;2023-03-23T09:11:21;24.13;;;2.80;;
48987;SDS011;34799;51.440;-2.534;2023-03-23T09:13:47;16.42;;;1.85;;
48987;SDS011;34799;51.440;-2.534;2023-03-23T09:16:13;17.35;;;1.65;;
48987;SDS011;34799;51.440;-2.534;2023-03-23T09:18:41;16.30;;;3.15;;
48987;SDS011;34799;51.440;-2.534;2023-03-23T09:21:07;17.20;;;2.42;;
48987;SDS011;34799;51.440;-2.534;2023-03-23T09:23:34;18.73;;;2.95;;
48987;SDS011;34799;51.440;-2.534;2023-03-23T09:26:00;21.08;;;2.92;;
48987;SDS011;34799;51.440;-2.534;2023-03-23T09:28:27;22.60;;;1.90;;
48987;SDS011;34799;51.440;-2.534;2023-03-23T09:30:55;17.15;;;1.95;;
48987;SDS011;34799;51.440;-2.534;2023-03-23T09:33:24;15.05;;;2.10;;
48987;SDS011;34799;51.440;-2.534;2023-03-23T09:35:52;15.13;;;2.10;;
48987;SDS011;34799;51.440;-2.534;2023-03-23T09:38:18;17.63;;;2.92;;
48987;SDS011;34799;51.440;-2.534;2023-03-23T09:40:46;18.45;;;2.20;;
48987;SDS011;34799;51.440;-2.534;2023-03-23T09:43:34;13.65;;;1.50;;
48987;SDS011;34799;51.440;-2.534;2023-03-23T09:48:59;11.43;;;1.08;;
48987;SDS011;34799;51.440;-2.534;2023-03-23T09:51:33;16.90;;;1.92;;
48987;SDS011;34799;51.440;-2.534;2023-03-23T09:54:19;14.65;;;1.67;;
48987;SDS011;34799;51.440;-2.534;2023-03-23T09:56:48;14.15;;;1.77;;
48987;SDS011;34799;51.440;-2.534;2023-03-23T09:59:20;19.23;;;2.35;;
48987;SDS011;34799;51.440;-2.534;2023-03-23T10:01:52;12.45;;;1.52;;
48987;SDS011;34799;51.440;-2.534;2023-03-23T10:07:13;20.77;;;1.70;;
48987;SDS011;34799;51.440;-2.534;2023-03-23T10:09:45;13.20;;;1.75;;
48987;SDS011;34799;51.440;-2.534;2023-03-23T10:12:19;18.60;;;2.67;;
48987;SDS011;34799;51.440;-2.534;2023-03-23T10:15:29;13.80;;;1.55;;
48987;SDS011;34799;51.440;-2.534;2023-03-23T10:18:10;15.52;;;2.38;;
48987;SDS011;34799;51.440;-2.534;2023-03-23T10:23:37;13.90;;;1.60;;
48987;SDS011;34799;51.440;-2.534;2023-03-23T10:29:01;17.48;;;1.75;;
48987;SDS011;34799;51.440;-2.534;2023-03-23T10:31:46;17.10;;;1.88;;
48987;SDS011;34799;51.440;-2.534;2023-03-23T10:34:49;17.15;;;1.80;;
48987;SDS011;34799;51.440;-2.534;2023-03-23T10:37:32;16.08;;;1.90;;
48987;SDS011;34799;51.440;-2.534;2023-03-23T10:40:02;15.18;;;2.35;;
48987;SDS011;34799;51.440;-2.534;2023-03-23T10:42:36;19.63;;;2.35;;
48987;SDS011;34799;51.440;-2.534;2023-03-23T10:50:36;17.27;;;2.25;;
48987;SDS011;34799;51.440;-2.534;2023-03-23T10:58:23;13.88;;;1.67;;
48987;SDS011;34799;51.440;-2.534;2023-03-23T11:00:54;11.82;;;2.05;;
48987;SDS011;34799;51.440;-2.534;2023-03-23T11:03:35;16.50;;;2.20;;
48987;SDS011;34799;51.440;-2.534;2023-03-23T11:06:06;29.83;;;3.05;;
48987;SDS011;34799;51.440;-2.534;2023-03-23T11:08:47;16.27;;;2.97;;
48987;SDS011;34799;51.440;-2.534;2023-03-23T11:11:20;17.45;;;2.45;;
48987;SDS011;34799;51.440;-2.534;2023-03-23T11:13:57;12.80;;;1.38;;
48987;SDS011;34799;51.440;-2.534;2023-03-23T11:16:27;17.17;;;2.28;;
48987;SDS011;34799;51.440;-2.534;2023-03-23T11:19:15;16.05;;;2.63;;
48987;SDS011;34799;51.440;-2.534;2023-03-23T11:21:50;15.40;;;1.75;;
48987;SDS011;34799;51.440;-2.534;2023-03-23T11:24:25;15.75;;;1.80;;
48987;SDS011;34799;51.440;-2.534;2023-03-23T11:26:55;22.00;;;2.97;;
48987;SDS011;34799;51.440;-2.534;2023-03-23T11:29:26;11.30;;;1.67;;
48987;SDS011;34799;51.440;-2.534;2023-03-23T11:34:25;15.27;;;1.92;;
48987;SDS011;34799;51.440;-2.534;2023-03-23T11:36:58;16.92;;;2.95;;
48987;SDS011;34799;51.440;-2.534;2023-03-23T11:39:29;19.08;;;2.55;;
48987;SDS011;34799;51.440;-2.534;2023-03-23T11:42:22;20.33;;;2.65;;
48987;SDS011;34799;51.440;-2.534;2023-03-23T11:44:53;18.00;;;2.53;;
48987;SDS011;34799;51.440;-2.534;2023-03-23T11:47:31;15.05;;;2.22;;
48987;SDS011;34799;51.440;-2.534;2023-03-23T11:52:47;15.95;;;2.00;;
48987;SDS011;34799;51.440;-2.534;2023-03-23T11:55:22;20.63;;;2.13;;
48987;SDS011;34799;51.440;-2.534;2023-03-23T11:57:56;19.47;;;2.17;;
48987;SDS011;34799;51.440;-2.534;2023-03-23T12:00:27;19.55;;;2.58;;
48987;SDS011;34799;51.440;-2.534;2023-03-23T12:06:12;13.18;;;2.00;;
48987;SDS011;34799;51.440;-2.534;2023-03-23T12:17:06;22.88;;;3.88;;
48987;SDS011;34799;51.440;-2.534;2023-03-23T12:19:43;18.38;;;3.15;;
48987;SDS011;34799;51.440;-2.534;2023-03-23T12:22:15;24.17;;;3.45;;
48987;SDS011;34799;51.440;-2.534;2023-03-23T12:25:05;22.10;;;3.10;;
48987;SDS011;34799;51.440;-2.534;2023-03-23T12:30:39;14.35;;;2.67;;
48987;SDS011;34799;51.440;-2.534;2023-03-23T12:42:12;23.63;;;4.10;;
48987;SDS011;34799;51.440;-2.534;2023-03-23T12:47:46;20.83;;;2.90;;
48987;SDS011;34799;51.440;-2.534;2023-03-23T12:53:09;23.05;;;3.42;;
48987;SDS011;34799;51.440;-2.534;2023-03-23T12:55:40;18.90;;;3.03;;
48987;SDS011;34799;51.440;-2.534;2023-03-23T12:58:13;24.88;;;2.53;;
48987;SDS011;34799;51.440;-2.534;2023-03-23T13:03:56;23.08;;;3.65;;
48987;SDS011;34799;51.440;-2.534;2023-03-23T13:09:20;22.77;;;4.07;;
48987;SDS011;34799;51.440;-2.534;2023-03-23T13:12:07;22.35;;;3.28;;
48987;SDS011;34799;51.440;-2.534;2023-03-23T13:17:30;24.38;;;2.85;;
48987;SDS011;34799;51.440;-2.534;2023-03-23T13:28:17;23.40;;;2.92;;
48987;SDS011;34799;51.440;-2.534;2023-03-23T13:31:04;25.35;;;2.80;;
48987;SDS011;34799;51.440;-2.534;2023-03-23T13:33:45;21.70;;;3.78;;
48987;SDS011;34799;51.440;-2.534;2023-03-23T13:36:15;22.33;;;3.42;;
48987;SDS011;34799;51.440;-2.534;2023-03-23T13:38:45;23.90;;;3.58;;
48987;SDS011;34799;51.440;-2.534;2023-03-23T13:41:14;30.52;;;3.50;;
48987;SDS011;34799;51.440;-2.534;2023-03-23T13:43:42;26.58;;;4.35;;
48987;SDS011;34799;51.440;-2.534;2023-03-23T13:46:11;26.77;;;4.47;;
48987;SDS011;34799;51.440;-2.534;2023-03-23T13:48:51;28.60;;;3.95;;
48987;SDS011;34799;51.440;-2.534;2023-03-23T13:54:15;23.77;;;4.65;;
48987;SDS011;34799;51.440;-2.534;2023-03-23T13:56:52;20.77;;;3.20;;
48987;SDS011;34799;51.440;-2.534;2023-03-23T14:02:31;27.73;;;3.80;;
48987;SDS011;34799;51.440;-2.534;2023-03-23T14:05:38;28.02;;;5.07;;
48987;SDS011;34799;51.440;-2.534;2023-03-23T14:08:01;26.45;;;3.60;;
48987;SDS011;34799;51.440;-2.534;2023-03-23T14:11:09;25.50;;;3.17;;
48987;SDS011;34799;51.440;-2.534;2023-03-23T14:13:40;21.23;;;2.53;;
48987;SDS011;34799;51.440;-2.534;2023-03-23T14:21:25;21.38;;;3.42;;
48987;SDS011;34799;51.440;-2.534;2023-03-23T14:26:35;20.02;;;3.42;;
48987;SDS011;34799;51.440;-2.534;2023-03-23T14:29:01;16.60;;;2.70;;
48987;SDS011;34799;51.440;-2.534;2023-03-23T14:31:28;16.00;;;2.00;;
48987;SDS011;34799;51.440;-2.534;2023-03-23T14:33:55;13.10;;;2.03;;
48987;SDS011;34799;51.440;-2.534;2023-03-23T14:36:26;21.77;;;2.15;;
48987;SDS011;34799;51.440;-2.534;2023-03-23T14:38:55;19.10;;;3.72;;
48987;SDS011;34799;51.440;-2.534;2023-03-23T14:41:27;17.55;;;2.30;;
48987;SDS011;34799;51.440;-2.534;2023-03-23T14:43:54;21.70;;;2.92;;
48987;SDS011;34799;51.440;-2.534;2023-03-23T14:46:21;15.82;;;2.42;;
48987;SDS011;34799;51.440;-2.534;2023-03-23T14:48:47;22.48;;;3.50;;
48987;SDS011;34799;51.440;-2.534;2023-03-23T14:51:20;17.30;;;2.30;;
48987;SDS011;34799;51.440;-2.534;2023-03-23T14:53:46;18.02;;;2.20;;
48987;SDS011;34799;51.440;-2.534;2023-03-23T14:56:17;16.17;;;1.70;;
48987;SDS011;34799;51.440;-2.534;2023-03-23T14:58:48;12.05;;;2.30;;
48987;SDS011;34799;51.440;-2.534;2023-03-23T15:01:18;15.07;;;2.15;;
48987;SDS011;34799;51.440;-2.534;2023-03-23T15:03:52;13.00;;;2.13;;
48987;SDS011;34799;51.440;-2.534;2023-03-23T15:06:26;20.75;;;2.55;;
48987;SDS011;34799;51.440;-2.534;2023-03-23T15:08:56;15.55;;;1.80;;
48987;SDS011;34799;51.440;-2.534;2023-03-23T15:11:29;14.77;;;1.92;;
48987;SDS011;34799;51.440;-2.534;2023-03-23T15:14:00;19.88;;;2.80;;
48987;SDS011;34799;51.440;-2.534;2023-03-23T15:16:52;15.10;;;2.13;;
48987;SDS011;34799;51.440;-2.534;2023-03-23T15:19:24;13.68;;;2.53;;
48987;SDS011;34799;51.440;-2.534;2023-03-23T15:22:06;14.90;;;2.50;;
48987;SDS011;34799;51.440;-2.534;2023-03-23T15:25:03;19.50;;;2.08;;
48987;SDS011;34799;51.440;-2.534;2023-03-23T15:27:39;19.20;;;2.30;;
48987;SDS011;34799;51.440;-2.534;2023-03-23T15:32:49;19.02;;;2.40;;
48987;SDS011;34799;51.440;-2.534;2023-03-23T15:35:19;18.15;;;2.72;;
48987;SDS011;34799;51.440;-2.534;2023-03-23T15:37:48;15.75;;;2.33;;
48987;SDS011;34799;51.440;-2.534;2023-03-23T15:40:18;17.17;;;1.83;;
48987;SDS011;34799;51.440;-2.534;2023-03-23T15:42:46;16.02;;;2.33;;
48987;SDS011;34799;51.440;-2.534;2023-03-23T15:50:15;12.38;;;1.45;;
48987;SDS011;34799;51.440;-2.534;2023-03-23T15:52:45;17.15;;;1.67;;
48987;SDS011;34799;51.440;-2.534;2023-03-23T15:55:20;14.27;;;3.35;;
48987;SDS011;34799;51.440;-2.534;2023-03-23T15:57:47;12.20;;;2.45;;
48987;SDS011;34799;51.440;-2.534;2023-03-23T16:00:17;12.98;;;2.15;;
48987;SDS011;34799;51.440;-2.534;2023-03-23T16:02:51;15.57;;;2.00;;
48987;SDS011;34799;51.440;-2.534;2023-03-23T16:05:22;14.57;;;2.05;;
48987;SDS011;34799;51.440;-2.534;2023-03-23T16:07:50;12.52;;;2.13;;
48987;SDS011;34799;51.440;-2.534;2023-03-23T16:10:18;11.75;;;2.00;;
48987;SDS011;34799;51.440;-2.534;2023-03-23T16:12:47;8.30;;;1.35;;
48987;SDS011;34799;51.440;-2.534;2023-03-23T16:15:16;14.77;;;2.33;;
48987;SDS011;34799;51.440;-2.534;2023-03-23T16:17:43;12.20;;;1.40;;
48987;SDS011;34799;51.440;-2.534;2023-03-23T16:20:19;14.95;;;2.17;;
48987;SDS011;34799;51.440;-2.534;2023-03-23T16:22:48;9.05;;;1.40;;
48987;SDS011;34799;51.440;-2.534;2023-03-23T16:25:16;7.53;;;0.93;;
48987;SDS011;34799;51.440;-2.534;2023-03-23T16:27:45;12.10;;;1.98;;
48987;SDS011;34799;51.440;-2.534;2023-03-23T16:30:21;5.65;;;0.88;;
48987;SDS011;34799;51.440;-2.534;2023-03-23T16:32:50;10.20;;;1.05;;
48987;SDS011;34799;51.440;-2.534;2023-03-23T16:35:18;10.65;;;1.30;;
48987;SDS011;34799;51.440;-2.534;2023-03-23T16:37:47;8.45;;;1.10;;
48987;SDS011;34799;51.440;-2.534;2023-03-23T16:40:16;14.50;;;1.40;;
48987;SDS011;34799;51.440;-2.534;2023-03-23T16:42:45;11.80;;;1.75;;
48987;SDS011;34799;51.440;-2.534;2023-03-23T16:45:14;14.75;;;2.28;;
48987;SDS011;34799;51.440;-2.534;2023-03-23T16:47:41;8.98;;;1.10;;
48987;SDS011;34799;51.440;-2.534;2023-03-23T16:50:10;13.98;;;2.58;;
48987;SDS011;34799;51.440;-2.534;2023-03-23T16:52:42;9.27;;;1.00;;
48987;SDS011;34799;51.440;-2.534;2023-03-23T16:55:13;6.45;;;0.98;;
48987;SDS011;34799;51.440;-2.534;2023-03-23T16:57:43;7.57;;;1.10;;
48987;SDS011;34799;51.440;-2.534;2023-03-23T17:00:11;8.65;;;0.95;;
48987;SDS011;34799;51.440;-2.534;2023-03-23T17:02:41;8.85;;;0.63;;
48987;SDS011;34799;51.440;-2.534;2023-03-23T17:05:10;9.00;;;0.98;;
48987;SDS011;34799;51.440;-2.534;2023-03-23T17:07:38;8.85;;;0.60;;
48987;SDS011;34799;51.440;-2.534;2023-03-23T17:10:07;7.72;;;0.65;;
48987;SDS011;34799;51.440;-2.534;2023-03-23T17:12:36;3.05;;;0.60;;
48987;SDS011;34799;51.440;-2.534;2023-03-23T17:15:04;4.40;;;0.32;;